Onsdag 2022-09-28 15:46:51 vecka 39, namnsdag Lennart, Leonard, imorgon Mikael, Mikaela  [Huvudmeny]   minomax.se   minomax.se/synop   minomax.se/flyg   wwwinfo.se   medd.nu  -  meddelanden   kakor SYNOP-data Visa SYNOP-temperaturer och data
Land: skriv landsbeteckning, 2 bokstäver, tex. se för Sverige. Sök land Sökord: skriv sökord, eller lämna tomt så visas alla Visar SYNOP för SE- Sverige Land/ IATA Id Mätplats Temp Tid Datum region ICAO SYNOP... WMO-nr ----- ------------------------- ----- ----- ---------- ------ --- ---- -----------------... 02013 Ritsem|Akkastugan 8,6 14:00 2022-09-28 SE-BD AAXX 28121 02013 27/84 /1405 10086 20010 39482 40123 57007 700// 333 60005 90710 91109= 02019 Katterjakk|Lapplandia/Air 6,9 14:00 2022-09-28 SE-BD AAXX 28121 02019 27/84 /0902 10069 20006 39516 40131 57007 700// 333 60005 90710 91104= 02022 Abisko/Automated 3,0 (08:00 2022-09-28) SE-BD AAXX 28061 02022 05570 82005 10030 21007 39669 40150 57002 60002 333 10041 20003 60005 70000 88/33 90710 91107= 02024 Stora Sjoefallet|Vietas 8,1 14:00 2022-09-28 SE-BD AAXX 28121 02024 47/84 /1106 10081 20016 700// 333 90710 91109= 02029 Tarfala 1,5 14:00 2022-09-28 SE-BD AAXX 28121 02029 46/// /3101 10015 21005 38813 57004 333 90710 91104=
02031 Rensjoen|Rautas 6,8 14:00 2022-09-28 SE-BD AAXX 28121 02031 27/84 /0104 10068 20030 700// 333 60005 90710 91105= 02036 Nikkaluokta/Automated 8,2 14:00 2022-09-28 SE-BD AAXX 28121 02036 27584 81402 10082 21006 39580 40137 57005 700// 333 60005 82/30 88/50 90710 91105= 02038 Latnivaara|Ladnivare 6,4 14:00 2022-09-28 SE-BD AAXX 28121 02038 27/82 /1202 10064 20053 72386 333 60005 90710 91103= 02044 Kiruna|Tuolluvaara/Airpor 5,7 14:00 2022-09-28 SE-BD KRN ESNQ AAXX 28121 02044 47231 /2201 10057 20052 39596 40149 57003 752// 333 89/05= 02045 Kiruna|Tuolluvaara/Geofys /// 13:00 2022-09-28 SE-BD AAXX 2811/ 02045 333 55300 20166 41214=
02049 Gallivare|Malmberget/Priv 6,8 14:00 2022-09-28 SE-BD GEV ESNG AAXX 28121 02049 27/37 /1102 10068 20065 39714 40148 57003 78186 333 69915 90710 91104= 99000 Nedre Soppero /// (07:00 2022-08-02) SE-BD OOXX 02054 99000 10000 03600 ////2 26/// ///// 11390 2//// 3//// 4//// 5//// 6//// 7//// 8//// 9//// 333 55/// ///// 58/// 02055 Naimakka|Siikavuopio 6,2 14:00 2022-09-28 SE-LL AAXX 28121 02055 27356 81102 10062 20058 71086 333 60005 88/06 90710 91105= 02063 Asele|Söråsele 18,9 (08:00 2022-06-02) SE-AC AAXX 02064 02063 64870 32460 10189 20178 38887 48485 82542 333 0//00 20183 50331 55068 59030 82616 85360 87080= 02064 Saittarova 6,9 14:00 2022-09-28 SE-BD AAXX 28121 02064 27/24 /1302 10069 20054 76186 333 69925 90710 91104=
02072 Porkalompolo|Parkalompolo 6,1 14:00 2022-09-28 SE-BD AAXX 28121 02072 27/36 91302 10061 20044 39779 40159 54001 71086 333 60005 89/06 90710 91105= 99000 Orebro|Ekeby-Almby/Ekeby /// (09:00 2022-09-02) SE-T OOXX 02074 99000 10000 03600 ////2 26/// ///// 1//// 2//// 3//// 4//// 5//// 6//// 7//// 8//// 9//// 333 55/// ///// 58/// 02081 Karesuando/Airport 6,3 14:00 2022-09-28 SE-BD AAXX 28121 02081 27/84 /1302 10063 20055 39755 40157 57002 70086 333 60005 90710 91104= 99000 Lannavaara /// (10:00 2022-09-02) SE-BD OOXX 02084 99000 10000 03600 ////2 26/// ///// 1//// 2//// 3//// 4//// 5//// 6//// 7//// 8//// 9//// 333 55/// ///// 58/// 99000 Ungskar|Stenshamn /// (11:00 2022-09-02) SE- OOXX 02094 99000 10000 03600 ////2 26/// ///// 1//// 2//// 3//// 4//// 5//// 6//// 7//// 8//// 9//// 333 55/// ///// 58///
02095 Pajala|Kungsstrand 6,8 14:00 2022-09-28 SE-BD AAXX 28121 02095 27260 81302 10068 20064 39961 40164 52001 71086 333 60005 88/03 90710 91105= 02101 Palkem|Björkfors 7,3 14:00 2022-09-28 SE-AC AAXX 28121 02101 45584 /1204 10073 20029 39582 40129 57004 333 88/26= 02102 Stekenjokk|Stikkenjokk 4,6 (08:00 2022-09-15) SE-AC AAXX 15061 02102 46/// /0308 10046 20044 333 10048 20045 90710 91110= 02103 Hemavan-Skorvfjalle|Portb 4,2 14:00 2022-09-28 SE-AC AAXX 28121 02103 46/// /1306 10042 20021 333 90710 91109= 99236 Hemavan|Portbron /// (12:00 2022-08-02) SE-AC OOXX 02104 99236 10882 10038 ////2 26/// ///// 11353 2//// 3//// 4//// 5//// 6//// 7//// 8//// 9//// 333 55/// ///// 58///
02110 Gielas|Svallgonäs 6,6 14:00 2022-09-28 SE-AC AAXX 28121 02110 27/84 /1401 10066 20030 700// 333 60005 90710 91104= 99236 Norraker|Saxåmon /// (13:00 2022-08-02) SE-AC OOXX 02114 99236 10882 10038 ////2 26/// ///// 11351 2//// 3//// 4//// 5//// 6//// 7//// 8//// 9//// 333 55/// ///// 58/// 02119 Kvikkjokk Arrenjarka A|Nj 8,3 14:00 2022-09-28 SE-BD AAXX 28121 02119 27684 80802 10083 20032 39760 40140 57006 700// 333 60005 88/39 90710 91104= 02121 Mierkenis|Vuoggatjålme 6,1 14:00 2022-09-28 SE-BD AAXX 28121 02121 27/84 /1305 10061 20024 39401 40132 57004 700// 333 60005 90710 91107= 02124 Arjeplog|Sakkavare 7,3 14:00 2022-09-28 SE-BD AAXX 28121 02124 27483 80702 10073 20032 39623 40140 57005 700// 333 60005 81/18 88/41 90710 91103=
02126 Gunnarn|Bastuträsk/Airpor 7,7 14:00 2022-09-28 SE-AC ESPD AAXX 28121 02126 25584 80501 10077 20052 39804 40139 57004 333 60005 88/21 90710 91101= 02135 Buresjoen 7,7 14:00 2022-09-28 SE-AC AAXX 28121 02135 27584 80901 10077 20028 700// 333 60005 88/27 88/29 90710 91102= 02141 Tjakaape|Nausta 4,9 14:00 2022-09-28 SE-BD AAXX 28121 02141 07283 80602 10049 20049 39452 40147 58004 69911 70085 333 60005 88/06 91003 90710 91103= 99000 Abraur|Suddesjaur /// (16:00 2022-09-02) SE-BD OOXX 02144 99000 10000 03600 ////2 26/// ///// 1//// 2//// 3//// 4//// 5//// 6//// 7//// 8//// 9//// 333 55/// ///// 58/// 02147 Malaa-Braennan|Släppträsk 7,4 14:00 2022-09-28 SE-AC AAXX 28121 02147 27/84 /0501 10074 20035 700// 333 60005 90710 91102=
02149 Arvidsjaur|Fjällbonäs 6,4 14:00 2022-09-28 SE-BD AAXX 28121 02149 27384 80401 10064 20048 39681 40143 57004 70062 333 60005 85/09 88/13 90710 91103= 02151 Jokkmokk|Koskats/Jokkmokk 7,4 14:00 2022-09-28 SE-BD AAXX 28121 02151 07276 81201 10074 20068 39813 40146 58002 60021 75265 333 69935 85/05 87/08 88/21 91002 90710 91122= 02154 Vidsel|Nästräsk/AFB 7,9 14:00 2022-09-28 SE-BD ESPE AAXX 28121 02154 01283 80000 10079 20068 39925 40147 58003 60011 72065 876// 333 69905 81704 83706 87710 91001 90710 91101 02161 Nattavaara 7,3 14:00 2022-09-28 SE-BD AAXX 28121 02161 27/25 91301 10073 20049 78186 333 69955 89/01 90710 91102= 99236 Palkem|Pålkem /// (18:00 2022-08-02) SE-BD OOXX 02164 99236 10882 10038 ////2 26/// ///// 11375 2//// 3//// 4//// 5//// 6//// 7//// 8//// 9//// 333 55/// ///// 58///
02171 Boden|Avaheden/Army Air B 8,9 14:00 2022-09-28 SE-BD ESPG AAXX 28121 02171 07364 81301 10089 20081 30116 40147 50001 69951 70085 333 60005 82/08 83/15 88/36 91002 90710 91104= 02173 Aelvsbyn|Högheden 8,9 14:00 2022-09-28 SE-BD AAXX 28121 02173 27/34 92801 10089 20083 78286 333 69955 89/23 90710 91102= 02174 Lakatraesk|Lakaträsk 8,2 14:00 2022-09-28 SE-BD AAXX 28121 02174 27383 81202 10082 20062 39920 40146 57001 72386 333 60005 82/07 85/12 88/17 90710 91104= 02176 Ronnskar|Jävrebodarna/Aut 9,2 14:00 2022-09-28 SE- AAXX 28121 02176 27382 80102 10092 20074 72385 333 60005 82/06 83/10 88/34 90710 91104= 02181 Svartbyn|Mjölan/Automated 8,0 14:00 2022-09-28 SE-BD AAXX 28121 02181 27384 80901 10080 20076 30079 40155 52002 72386 333 69915 83/07 85/21 88/29 90710 91103=
02183 Lulea Sol|Kallax /// 13:00 2022-09-28 SE-BD AAXX 2811/ 02183 333 55300 20369= 02184 Paharova 6,8 14:00 2022-09-28 SE-BD AAXX 28121 02184 27/70 /1302 10068 20066 39877 40156 54001 72386 333 69915 90710 91106= 02186 Kallax|Svartöstaden/Lulea 9,9 14:00 2022-09-28 SE-BD LLA ESPA AAXX 28121 02186 01480 71404 10099 20079 30121 40146 50001 60001 71552 84500 333 60005 82614 84639 91006 90710 91106= 02188 Rodkallen|Storbrändön/Aut 9,5 14:00 2022-09-28 SE- AAXX 28121 02188 27484 81105 10095 20073 70086 333 60005 84/11 88/50 90710 91106= 02191 Storoen|Storön 9,3 14:00 2022-09-28 SE- AAXX 28121 02191 27481 61007 10093 20084 30146 40151 54001 70086 333 60005 81/18 86/59 90710 91109=
02197 Haparanda|Sundholmen/Hapa 9,2 14:00 2022-09-28 SE-BD AAXX 28121 02197 27484 81202 10092 20071 30138 40157 54000 7001/ 333 60005 88/10 90710 91105= 02199 Ylinenjaervi|Ylinenjärvi 7,0 14:00 2022-09-28 SE-BD AAXX 28121 02199 27265 81201 10070 20068 70086 333 60005 88/06 90710 91105= 99236 Nikkaluokta /// (22:00 2022-08-02) SE-BD OOXX 02204 99236 10882 10038 ////2 26/// ///// 11374 2//// 3//// 4//// 5//// 6//// 7//// 8//// 9//// 333 55/// ///// 58/// 02205 Storlien Sol /// (10:00 2022-01-17) SE-Z AAXX 1709/ 02205 NIL= 02207 Storlien-Visjovalen|Visjö 10,4 14:00 2022-09-28 SE-Z AAXX 28121 02207 27584 81205 10104 20040 39401 40084 55002 700// 333 60005 88/25 90710 91109=
02209 Sylarna|Tjallingen/Automa 5,7 14:00 2022-09-28 SE-Z AAXX 28121 02209 46/// /2011 10057 20021 333 90710 91117= 02210 Blahammaren A|Blåhammaren 5,1 14:00 2022-09-28 SE-Z AAXX 28121 02210 46/// /1411 10051 20039 333 90710 91115= 99000 Trillevallen|Sefrivatn /// (23:00 2022-09-02) SE-18 OOXX 02214 99000 10000 03600 ////2 26/// ///// 1//// 2//// 3//// 4//// 5//// 6//// 7//// 8//// 9//// 333 55/// ///// 58/// 02219 Gaddede A|Gussvattnet 5,9 14:00 2022-09-28 SE-Z AAXX 28121 02219 27/61 /1004 10059 20049 39463 40125 50000 72365 333 69915 90710 91107= 02221 Korsvattnet|Mjölkvattnet 5,8 14:00 2022-09-28 SE-Z AAXX 28121 02221 27/24 /1104 10058 20056 72385 333 69915 90710 91107=
99000 Follinge-Vagskalet|Vägskä /// (00:00 2022-08-03) SE-Z OOXX 02224 99000 10000 03600 ////2 26/// ///// 11391 2//// 3//// 4//// 5//// 6//// 7//// 8//// 9//// 333 55/// ///// 58/// 02226 Ostersund-Åre Airport 9,3 14:00 2022-09-28 SE-Z OSD ESNZ AAXX 28121 02226 45583 /1205 10093 20085 39660 40107 50000 333 83/30 88/42= 02229 Östersund Sol|Västerhus /// 13:00 2022-09-28 SE-Z AAXX 2811/ 02229 333 55300 20222= 02230 Gubbhögen/Högbynäs 7,5 14:00 2022-09-28 SE-Z AAXX 28121 02230 27/64 /0902 10075 20066 76166 333 69925 90710 91105= 02231 Föllinge 7,5 14:00 2022-09-28 SE-Z AAXX 28121 02231 271// 80803 10075 20071 70065 333 60005 88/02 90710 91105=
99000 Stromsund/Näsviken /// (01:00 2022-09-03) SE-Z OOXX 02234 99000 10000 03600 ////2 26/// ///// 1//// 2//// 3//// 4//// 5//// 6//// 7//// 8//// 9//// 333 55/// ///// 58/// 02236 Hallhåxåsen 7,3 14:00 2022-09-28 SE-Z AAXX 28121 02236 27166 80802 10073 20072 39668 40120 57001 70065 333 60005 88/02 90710 91105= 02242 Hoting|Andersnäset 8,2 14:00 2022-09-28 SE-Z AAXX 28121 02242 27/83 /0801 10082 20055 70062 333 60005 90710 91102= 02243 Krångede|Bölen 8,2 14:00 2022-09-28 SE-Y AAXX 28121 02243 27/71 /1001 10082 20059 39861 40128 54000 76186 333 69915 90710 91104= 02245 Vilhelmina|Dalasjö/Automa 8,1 14:00 2022-09-28 SE-AC AAXX 28121 02245 27/83 /1102 10081 20054 39712 40131 58004 7616/ 333 69915 90710 91104=
02247 Krangede|Döviken/Automate 9,8 14:00 2022-09-28 SE-Z AAXX 28121 02247 27265 61002 10098 20069 39895 40116 54000 72386 333 60005 81/06 83/10 86/19 90710 91105= 02254 Åsele/Söråsele 7,2 14:00 2022-09-28 SE-AC AAXX 28121 02254 27373 80701 10072 20061 39761 40133 54000 70062 333 60005 88/08 88/11 90710 91103= 02260 Västmarkum|Östmarkum 10,1 14:00 2022-09-28 SE-Y AAXX 28121 02260 47/83 /0902 10101 20080 39950 40122 58002 70065 333 90710 91104= 02261 Lycksele|Hälsingfors 9,5 14:00 2022-09-28 SE-AC AAXX 28121 02261 27/84 /0401 10095 20041 39879 40133 57005 700// 333 60005 90710 91103= 02263 Fredrika|Fristad 6,8 14:00 2022-09-28 SE-AC AAXX 28121 02263 27338 81101 10068 20064 76186 333 69965 82/06 86/10 88/17 90710 91103=
02265 Hemling 8,2 14:00 2022-09-28 SE-Y AAXX 28121 02265 27282 80302 10082 20080 39911 40133 58001 70086 333 60005 88/06 90710 91104= 02267 Örnskoldsvik/Airport 9,6 14:00 2022-09-28 SE-Y OER ESNO AAXX 28121 02267 45483 /0702 10096 20084 39997 40128 50001 333 83/11 85/13 88/48= 02269 Skagsudde|Skeppsmalen/Aut 11,1 14:00 2022-09-28 SE-Y AAXX 28121 02269 27484 80604 10111 20071 7//86 333 60005 81/15 86/56 88/58 90710 91106= 02271 Norsjö|Finnäs 8,4 14:00 2022-09-28 SE-AC AAXX 28121 02271 27/84 /0302 10084 20045 39764 40136 57005 70086 333 60005 90710 91103= 02282 Petisträsk 9,0 14:00 2022-09-28 SE-AC AAXX 28121 02282 27584 70701 10090 20046 700// 333 60005 82/20 86/26 87/32 90710 91103=
02283 Umeå Robacksdalen|Teg /// 13:00 2022-09-28 SE-AC AAXX 2811/ 02283 333 55300 20501 41241= 02284 Järnäsklubb 10,1 14:00 2022-09-28 SE-AC AAXX 28121 02284 27484 70705 10101 20077 30121 40130 54001 70086 333 60005 82/10 87/50 90710 91107= 02286 Umeå/Airport 9,6 14:00 2022-09-28 SE-AC UME ESNU AAXX 28121 02286 45383 /0303 10096 20081 30126 40135 58002 333 85/09 88/50= 02287 Holmön 9,9 14:00 2022-09-28 SE- AAXX 28121 02287 27684 80803 10099 20077 30124 40134 57002 70082 333 60005 81/45 88/50 90710 91105= 02293 Skellefteå/Airport 8,6 14:00 2022-09-28 SE-AC SFT ESNS AAXX 28121 02293 47284 /0401 10086 20086 30083 40142 57002 722// 333 81/05 86/08 88/13=
02297 Bjuröklubb 9,4 14:00 2022-09-28 SE- AAXX 28121 02297 27484 50902 10094 20075 30093 40138 57003 70086 333 60005 81/10 84/33 85/43 90710 91105= 02307 Idre|Idre Fjäll/Automated 2,8 (08:00 2022-09-21) SE-W AAXX 21061 02307 46/// /3403 10028 21021 333 10045 20024 90710 91103= 02308 Tannas|Tännäs/Automated 7,3 14:00 2022-09-28 SE-Z AAXX 28121 02308 27350 81101 10073 20041 39251 40100 52002 76186 333 69905 84/07 86/11 88/27 90710 91104= 02316 Särna 7,3 (08:00 2022-09-28) SE-W AAXX 28061 02316 46/// ///// 10073 333 10086 20044= 02317 Dravagen 8,3 14:00 2022-09-28 SE-Z AAXX 28121 02317 27383 80904 10083 20069 70082 333 60005 87/08 88/15 90710 91106=
02319 Börtnan 9,9 14:00 2022-09-28 SE-Z AAXX 28121 02319 27/84 /1202 10099 20056 70086 333 60005 90710 91106= 02321 Älvdalen|Rot 12,2 14:00 2022-09-28 SE-W AAXX 28121 02321 27584 60804 10122 20062 39779 40078 54001 700// 333 60005 81/29 86/50 90710 91108= 02325 Klövsjöhöjden|Sångbäcken 6,2 14:00 2022-09-28 SE-Z AAXX 28121 02325 27/66 /1103 10062 20060 39166 40107 54000 73132 333 60005 90710 91106= 02327 Sveg|Sundsätt/Sveg A 9,2 14:00 2022-09-28 SE-Z AAXX 28121 02327 27/58 /0905 10092 20073 39672 40099 50002 78186 333 60005 90710 91108= 02329 Hamra 8,3 14:00 2022-09-28 SE-X AAXX 28121 02329 27/67 /0602 10083 20071 39556 40095 52001 7616/ 333 69905 90710 91107=
02331 Hunge 9,7 14:00 2022-09-28 SE-Z AAXX 28121 02331 27563 81002 10097 20073 70086 333 60005 88/30 90710 91104= 02338 Edsbyn|Gammelhomna/Automa 12,2 14:00 2022-09-28 SE-X AAXX 28121 02338 27584 30905 10122 20061 39867 40086 57002 70086 333 60005 81/27 83/35 90710 91109= 02343 Torpshammar|Rombäck 10,6 14:00 2022-09-28 SE-Y AAXX 28121 02343 27584 80000 10106 20062 39989 40109 54001 70062 333 60005 88/28 88/34 90710 91103= 02347 Delsbo|Åkre 11,7 14:00 2022-09-28 SE-X AAXX 28121 02347 27684 40802 10117 20059 30016 40102 54001 700// 333 60005 84/37 90710 91107= 02355 Kuggören|Bålsön/Automated 11,9 14:00 2022-09-28 SE- AAXX 28121 02355 25981 80906 10119 20065 30092 40104 50001 333 60005 88/61 90710 91108=
02366 Sundsvall|Midlanda/Härnös 11,3 14:00 2022-09-28 SE-Y SDL ESNN AAXX 28121 02366 45484 /0804 10113 20082 30110 40116 50001 333 83/15 88/57= 02368 Brämön/Sanna/Automated 11,5 14:00 2022-09-28 SE- AAXX 28121 02368 27784 80904 10115 20073 70086 333 60005 86/56 88/59 90710 91106= 02382 Lungö|Uddhamn/Automated 11,5 14:00 2022-09-28 SE- AAXX 28121 02382 27/82 /0804 10115 20084 70086 333 60005 90710 91105= 02403 Naven|Skaven 14,0 14:00 2022-09-28 SE- AAXX 28121 02403 27582 70705 10140 20099 700// 333 60005 81/30 87/57 90710 91110= 02407 Malung A|Grimsmyrheden 11,8 14:00 2022-09-28 SE-W AAXX 28121 02407 27584 70803 10118 20050 39709 40067 57002 700// 333 60005 81/24 87/50 90710 91109=
02408 Blomskog|Vammerviken/Auto 13,1 14:00 2022-09-28 SE- AAXX 28121 02408 27584 70804 10131 20081 39822 40024 50004 700// 333 60005 85/24 87/56 90710 91110= 02411 Arvika|Långvak 13,6 14:00 2022-09-28 SE-S AAXX 28121 02411 27583 70505 10136 20085 39962 40041 52002 700// 333 60005 87/30 90710 91110= 02417 Pålgrunden|Tallbacken /// 14:00 2022-09-28 SE-S AAXX 28121 02417 46/// /0313 333 90710 91116= 02418 Karlstad/Airport 13,2 14:00 2022-09-28 SE-S KSD ESSQ AAXX 28121 02418 45584 /0705 10132 20064 39910 40037 54001 333 81/26 83/31 85/36 88/40= 02419 Sookojan|Nolgård /// 13:00 2022-09-28 SE-S AAXX 2811/ 02419 333 55301 20739=
02423 Sunne|Ulvsby 13,1 14:00 2022-09-28 SE-S AAXX 28121 02423 27583 50602 10131 20080 700// 333 60005 84/26 85/50 90710 91107= 02426 Gustavsfors 12,4 14:00 2022-09-28 SE-S AAXX 28121 02426 27683 70703 10124 20066 39833 40056 52002 700// 333 60005 83/34 87/50 90710 91109= 02429 Daglösen|Gränäset 13,1 14:00 2022-09-28 SE-US AAXX 28121 02429 27683 10703 10131 20077 700// 333 60005 81/42 90710 91107= 02431 Kloten 11,6 14:00 2022-09-28 SE-T AAXX 28121 02431 27584 70904 10116 20071 39716 40051 58004 700// 333 60005 87/22 90710 91110= 02432 Orebro|Tredingskullen/Aut 14,9 14:00 2022-09-28 SE-T AAXX 28121 02432 45583 /0708 10149 20092 39967 40035 54001 333 84/30 85/38 87/57=
02435 Borlänge|Romme/AFB 12,4 14:00 2022-09-28 SE-W BLE ESSD AAXX 28121 02435 45683 /0704 10124 20054 39883 40066 57004 333 86/34 87/50= 02437 Aspa /// 13:00 2022-09-28 SE-U ESQO AAXX 2811/ 02437 333 55307 21328= 02440 Åmot 10,7 14:00 2022-09-28 SE-X AAXX 28121 02440 25584 60605 10107 20054 333 60005 86/32 90710 91108= 02441 Mora|Vinäs 12,8 14:00 2022-09-28 SE-W AAXX 28121 02441 27684 60804 10128 20061 39840 40073 58002 700// 333 60005 84/36 86/50 90710 91110= 02443 Enköping/Åkerby 13,5 14:00 2022-09-28 SE-C AAXX 28121 02443 07683 50803 10135 20096 30025 40054 58004 69911 7238/ 333 60005 82/44 85/57 91006 90710 91107=
02449 Eskilstuna|Flacksta/AB 13,6 14:00 2022-09-28 SE-D EKT ESSU AAXX 28121 02449 27884 50805 10136 20077 30030 40044 57003 78182 333 60005 85/58 90710 91110= 02450 Eggegrund|Långsand 12,2 14:00 2022-09-28 SE- AAXX 28121 02450 46/// /0909 10122 20076 333 90710 91111= 02452 Kilsbergen-Suttarboda|Sve 12,1 14:00 2022-09-28 SE-T AAXX 28121 02452 27584 70904 10121 20085 333 60005 86/21 87/56 90710 91111= 02453 Gävle|Varva/Automated 12,6 14:00 2022-09-28 SE-X AAXX 28121 02453 27582 50804 10126 20067 30060 40081 58003 700// 333 60005 85/21 90710 91110= 02456 Films Kyrkby|Kyrkbyn 12,4 14:00 2022-09-28 SE-C AAXX 28121 02456 25584 60603 10124 20071 30028 40069 57006 333 60005 83/32 86/42 90710 91107=
02458 Uppsala|Ärna/AFB 12,9 14:00 2022-09-28 SE-C ESCM AAXX 28121 02458 05989 01004 10129 20091 30036 40060 58005 60001 80000 333 60005 91007 90710 91110= 02460 Stockholm|Kimsta/Arlanda 12,2 14:00 2022-09-28 SE-AB ARN ESSA AAXX 28121 02460 45782 /0605 10122 20056 30004 40054 58004 333 81/50= 02462 Uppsala Universitet|Almtu 6,1 (15:00 2019-11-20) SE-C AAXX 20141 02462 26/// /1701 10061 20060 30240 40279 333 60005= 02464 Stockholm/Bromma 13,1 14:00 2022-09-28 SE-AB BMA ESSB AAXX 28121 02464 45583 /0806 10131 20070 30036 40053 50000 333 86/25 87/44 88/56= 02468 Stora Spånsberget|Spånsfä 9,7 14:00 2022-09-28 SE-W AAXX 28121 02468 27/83 /1605 10097 20049 7001/ 333 60005 90710 91110=
02469 Tullinge|Eklundshov 12,9 14:00 2022-09-28 SE-AB AAXX 28121 02469 25/84 /0705 10129 20077 333 60005 90710 91109= 02476 Floda|Stav/Automated 13,9 14:00 2022-09-28 SE-D AAXX 28121 02476 27682 80705 10139 20078 39996 40036 58001 700// 333 60005 83/35 87/58 88/50 90710 91110= 02481 Sala|Isätra 13,7 14:00 2022-09-28 SE-U AAXX 28121 02481 27584 40706 10137 20074 39988 40057 57006 700// 333 60005 81/29 84/50 90710 91110= 02482 Kerstinbo|Sälja 13,9 14:00 2022-09-28 SE-X AAXX 28121 02482 27/81 /1104 10139 20073 39998 40066 58005 700// 333 60005 90710 91108= 02483 Stockholm Kth|Stocksund/A /// 13:00 2022-09-28 SE-AB AAXX 2811/ 02483 333 55300 20679=
02484 Stockholm|Stocksund/Obser 13,0 14:00 2022-09-28 SE-AB AAXX 28121 02484 46/// ///// 10130 20064 30000 40053 50000= 02485 Stockholm|Stocksund/Autom 0,3 (07:00 2019-10-30) SE-AB AAXX 30061 02485 12/70 82701 10003 21030 30205 40271 60002 333 10037 20007= 02486 Adelsö/Hovgården 13,0 14:00 2022-09-28 SE- AAXX 28121 02486 27/84 /0807 10130 20081 72382 333 60005 90710 91111= 02487 Stavsnäs|Eriksberg/Automa 12,6 14:00 2022-09-28 SE- AAXX 28121 02487 46/// /0908 10126 20071 333 90710 91112= 02488 Örskar|Askskär/Automated 12,5 14:00 2022-09-28 SE- AAXX 28121 02488 27482 30808 10125 20083 30068 40080 57003 700// 333 60005 83/19 90710 91111=
02489 Hårsfjarden|Berga 13,3 14:00 2022-09-28 SE- AAXX 28121 02489 05583 80603 10133 20100 30043 40048 58002 60001 333 60005 83/24 88/57 91008 90710 91108= 02490 Svanberga 12,5 14:00 2022-09-28 SE-AB AAXX 28121 02490 27680 80806 10125 20073 30045 40065 57004 700// 333 60005 88/36 87/50 90710 91109= 02493 Söderarm|Österäng 12,7 14:00 2022-09-28 SE- AAXX 28121 02493 47583 81010 10127 20068 700// 333 84/31 88/49 90710 91113= 02496 Svenska Högarna|Kudoxa/Li 9,8 (08:00 2021-06-01) SE- AAXX 01060 02496 02984 00507 10098 333 10100 20081 31/// 70000= 02498 Svenska Högarna A|Kudoxa 12,8 14:00 2022-09-28 SE- AAXX 28121 02498 25582 10810 10128 20054 30039 40055 58003 333 60005 81/33 90710 91114=
02500 Nordkoster|Nord-Koster 14,1 14:00 2022-09-28 SE- AAXX 28121 02500 25583 70709 10141 20088 39969 40009 52007 333 60005 81/31 87/56 90710 91116= 02501 Vaderöarna|Sjöviken 14,0 14:00 2022-09-28 SE- AAXX 28121 02501 46/// /0714 10140 20088 39964 49992 51007 333 90710 91118= 02505 Måseskar|Käringön 14,8 14:00 2022-09-28 SE- AAXX 28121 02505 27880 20812 10148 20092 70086 333 60005 82/57 90710 91117= 02513 Göteborg|Torp/Automated 15,1 14:00 2022-09-28 SE- AAXX 28121 02513 27/83 /0704 10151 20083 39971 49975 52006 7//86 333 60005 90710 91110= 02516 Vinga|Fotö/Lighthouse 12,3 14:00 2022-09-28 SE- AAXX 28121 02516 27584 70906 10123 20101 39951 49974 51008 72386 333 69945 82/32 85/46 87/57 90710 91113=
02518 Nidingen|Vässingsö/Lighth 11,9 14:00 2022-09-28 SE- AAXX 28121 02518 466// 80809 10119 20100 333 85/35 87/46 88/50 90710 91111= 02520 Såtenas|Såtenäs Villastad 14,6 14:00 2022-09-28 SE- AAXX 28121 02520 02584 70807 10146 20096 39935 40000 51003 60001 86800 333 60005 84828 83833 86657 91011 90710 91112= 02526 Göteborg/Landvetter 13,1 14:00 2022-09-28 SE- GOT ESGG AAXX 28121 02526 45583 /0709 10131 20081 39793 49974 50005 333 81/28 83/46 88/56= 02536 Rångedala|Vevelhult/Autom 12,2 14:00 2022-09-28 SE- AAXX 28121 02536 27580 70802 10122 20086 39631 49979 50003 70082 333 60005 85/24 87/31 87/56 90710 91107= 02539 Ullared|Spetsebo 10,2 14:00 2022-09-28 SE-N AAXX 28121 02539 27534 80701 10102 20096 76386 333 60035 84/25 88/35 90710 91106=
02540 Kroppefjäll-Grånan|Årbol 11,8 14:00 2022-09-28 SE- AAXX 28121 02540 27480 80603 10118 20100 70082 333 60005 81/15 88/26 90710 91109= 02542 Hallum|Hällum 14,5 14:00 2022-09-28 SE- AAXX 28121 02542 27580 80706 10145 20075 39914 49998 52004 700// 333 60005 85/30 88/57 90710 91112= 02544 Karlsborg|Gräshult 12,0 14:00 2022-09-28 SE- AAXX 28121 02544 07689 60807 10120 20101 39903 40014 53003 69901 761// 333 69905 82/37 85/49 91012 90710 91115= 02545 Axstal|Hanken 12,3 14:00 2022-09-28 SE- AAXX 28121 02545 07479 70811 10123 20123 39911 40016 52002 60021 7826/ 333 60025 86/19 87/44 91015 90710 91115= 02546 Gardsjö|Korterud 11,8 14:00 2022-09-28 SE-T AAXX 28121 02546 27483 50804 10118 20092 39772 40022 52004 70086 333 60005 82/17 84/26 85/50 90710 91110=
02548 Visingsö|Ed 14,2 14:00 2022-09-28 SE-F AAXX 28121 02548 27/81 /0809 10142 20076 700// 333 60005 90710 91113= 02549 Tomtabacken|Stora Åkerhul 11,3 14:00 2022-09-28 SE-F AAXX 28121 02549 27575 70705 10113 20072 70086 333 60005 87/21 90710 91111= 02550 Jönkoping/Airport 13,0 14:00 2022-09-28 SE-F JKG ESGJ AAXX 28121 02550 45584 /0604 10130 20094 39720 49984 52002 333 84/26 85/70= 02552 Malexander|Mo 12,8 14:00 2022-09-28 SE-E AAXX 28121 02552 27582 30705 10128 20074 700// 333 60005 82/28 83/56 90710 91111= 02554 Kettstaka|Hulta 12,1 14:00 2022-09-28 SE-E AAXX 28121 02554 27483 70805 10121 20082 72386 333 69925 86/19 87/56 87/56 90710 91113=
02556 Hagshult|Hemmershult/AFB 12,7 14:00 2022-09-28 SE-F ESMV AAXX 28121 02556 07582 80706 10127 20120 39771 49970 50000 60021 72286 333 60005 84/22 85/33 88/56 91010 90710 91110= 02557 Horn|Äleby 13,7 14:00 2022-09-28 SE-E AAXX 28121 02557 27582 80807 10137 20074 39889 49996 58001 72382 333 69905 83/29 85/46 88/56 90710 91111= 02558 Kolmarden-Strömsfors|Strö 13,8 14:00 2022-09-28 SE-E AAXX 28121 02558 27584 70704 10138 20080 39842 40023 50000 70086 333 60005 85/30 87/70 90710 91111= 02559 Gladhammar|Ringsbo 14,2 14:00 2022-09-28 SE-H AAXX 28121 02559 27/83 /0808 10142 20084 700// 333 60005 90710 91114= 02561 Kvarn|Prästtomta 13,6 14:00 2022-09-28 SE-E AAXX 28121 02561 07583 30902 10136 20089 39937 40022 51002 69971 72286 333 60005 82/28 83/38 91005 90710 91106=
02562 Linköping|Jägarvallen/Mal 13,6 14:00 2022-09-28 SE-E AAXX 28121 02562 01582 70810 10136 20089 39906 40017 52004 69911 72582 878// 333 69905 82825 86630 91014 90710 91114= 02563 Harstena|Missjö 14,0 14:00 2022-09-28 SE- AAXX 28121 02563 25483 40911 10140 20094 39996 40017 50001 333 60005 84/19 90710 91116= 02565 Hultsfred|Målilla/AFB 13,4 14:00 2022-09-28 SE-H HLF ESSF AAXX 28121 02565 27580 80604 10134 20096 39866 49981 58002 76186 333 69905 86/23 87/37 88/57 90710 91110= 02567 Landsort 13,4 14:00 2022-09-28 SE- AAXX 28121 02567 27571 80913 10134 20095 30010 40034 57001 700// 333 60005 81/20 88/57 90710 91116= 02570 Norrköping|Östra Eneby/Br /// (19:00 2020-02-28) SE-E AAXX 28181 02570 10804 10368 20196 30032 40097 60001 81100 333 56100 59005 60007 81827=
02574 Norrköping|Fiskeby 14,1 14:00 2022-09-28 SE-E AAXX 28121 02574 27582 30904 10141 20081 39974 40023 52004 700// 333 60005 83/26 90710 91111= 02575 Ölandsnorraudde|Nabbelund 14,7 14:00 2022-09-28 SE- AAXX 28121 02575 27/74 /0908 10147 20086 39983 49987 57003 700// 333 60005 90710 91116= 02587 Fårösund-Ar 12,9 14:00 2022-09-28 SE- AAXX 28121 02587 27/82 /0812 10129 20090 700// 333 60005 90710 91116= 02589 Gotska Sandön|Lauters 13,3 14:00 2022-09-28 SE- AAXX 28121 02589 27481 41008 10133 20077 30008 40029 58003 700// 333 60005 84/17 90710 91113= 02590 Visby/Airport 13,7 14:00 2022-09-28 SE-I VBY ESSV AAXX 28121 02590 45582 /0707 10137 20091 39946 40005 50001 333 86/21 88/56=
02598 Östergarnsholm|Katthammar 13,8 14:00 2022-09-28 SE- AAXX 28121 02598 46/// /0813 10138 20095 333 90710 91115= 02604 Halmstad|Karlsro/AFB 10,9 (08:00 2022-09-28) SE-N HAD ESMT AAXX 28061 02604 47672 /0804 10109 20105 39909 49946 52002 752// 333 10121 20104 81/48= 02605 Hallands|Kalvskärslid/Vad 11,2 14:00 2022-09-28 SE- AAXX 28121 02605 27459 51702 10112 20102 76266 333 60035 83/13 85/24 85/41 90710 91105= 02607 Ängelholm|Barkåkra/AFB|F- 11,2 14:00 2022-09-28 SE- ESDB AAXX 28121 02607 47261 /0000 10112 20101 39933 49955 52006 762// 333 85/05 88/56= 02611 Helsingborg|Västra Ramlös 11,4 14:00 2022-09-28 SE- AAXX 28121 02611 27/70 /2501 10114 20093 39902 49954 52006 76186 333 60005 90710 91103=
02615 Falsterbo|Falsterbovång/F 12,8 14:00 2022-09-28 SE- AAXX 28121 02615 27984 13203 10128 20069 39951 49955 52006 700// 333 60005 81/63 90710 91105= 02616 Falsterbo|Falsterbovång/L 13,9 (08:00 2021-06-01) SE- AAXX 01060 02616 01/57 73504 10139 20126 30191 40197 53003 71022 85032 333 10171 20129 30/// 70000 85364 87258= 02618 Torup|Torpup|Tranabo/Torp 10,4 14:00 2022-09-28 SE-N AAXX 28121 02618 27/59 /0703 10104 20097 39804 49963 50004 7626/ 333 60015 90710 91106= 02622 Ljungby|Hovdinge 9,7 14:00 2022-09-28 SE-G AAXX 28121 02622 27541 80602 10097 20093 76386 333 60075 88/24 90710 91105= 02623 Hörby|Slagtofta 10,5 14:00 2022-09-28 SE- AAXX 28121 02623 27374 82902 10105 20091 76186 333 69935 81/06 88/50 90710 91103=
02625 Skillinge|Gislövhammar/Au 12,1 14:00 2022-09-28 SE- AAXX 28121 02625 27/82 /3201 10121 20094 39944 49950 52002 76186 333 69905 90710 91102= 02628 Hano|Hanö/Automated 11,6 14:00 2022-09-28 SE- AAXX 28121 02628 27381 70801 10116 20102 76166 333 69945 82/09 87/35 90710 91103= 02629 Hästveda|Hästveda 10,8 14:00 2022-09-28 SE- AAXX 28121 02629 07250 81301 10108 20108 39833 49954 51002 60121 76266 333 60045 82/04 83/13 87/41 91002 90710 91105= 02632 Utklippan|Stenshamn 12,5 14:00 2022-09-28 SE- AAXX 28121 02632 46/// /1004 10125 20114 333 90710 91106= 02635 Malmö|Husie/Automated 12,7 14:00 2022-09-28 SE- AAXX 28121 02635 25/81 /3101 10127 20078 333 60005 90710 91103=
02636 Malmö|Beddinge Läge/Sturu 11,9 14:00 2022-09-28 SE- MMX ESMS AAXX 28121 02636 45/84 /3103 10119 20081 39868 49953 50004= 02644 Ölandssödraudde|Ottenby/A 11,5 14:00 2022-09-28 SE- AAXX 28121 02644 27250 80901 10115 20102 39948 49951 54000 76266 333 60045 83/05 88/43 88/56 90710 91103= 02648 Växjö|Telestad 11,2 14:00 2022-09-28 SE-G AAXX 28121 02648 27/68 /0705 10112 20100 39725 49959 57003 78186 333 69935 90710 91110= 02661 Kosta|Lövsjö 10,9 14:00 2022-09-28 SE-G AAXX 28121 02661 07464 80502 10109 20101 39695 49965 58001 60131 78286 333 69945 86/14 87/18 88/30 91005 90710 91107= 02664 Ronneby|Häggatorp/AFB 11,7 14:00 2022-09-28 SE-K RNB ESDF AAXX 28121 02664 01279 80403 10117 20117 39885 49954 56002 60091 76366 886// 333 69975 86706 88748 91004 90710 91104=
02667 Söderstjerna|Drottningskä 12,6 14:00 2022-09-28 SE- AAXX 28121 02667 07380 80000 10126 20120 39948 49951 57004 60071 78186 333 69935 82/08 84/50 88/57 91000 90710 91100= 02670 Kalmar|Elverslösa/Airport 13,5 14:00 2022-09-28 SE-H ESDC AAXX 28121 02670 47489 /0807 10135 20110 39956 49962 58003 723// 333 81/17 83/21 85/33 87/56= 02679 Hoburg|Burge/Hoburg A 13,7 14:00 2022-09-28 SE-I AAXX 28121 02679 27583 70911 10137 20086 39937 49979 57003 70082 333 60005 81/21 86/56 87/59 90710 91116= (203 rader visades) Du kan lägga till id-beteckningen först på raden i valfri Lista 1 - 5 [top] ↕°C [1] [2] [3] [4] [5] ??? LISTOR 00-nr NOT MEDD MT METAR SYNOP SE SE-AB SE-C SE-D SE-E SE-F SE-G SE-H SE-I SE-K SE-M SE-N SE-O SE-P SE-T SE-U SE-W SE-X SE-Y SE-Z SE-AC SE-BD rådata flyg flyg_osd